Time;durP1;ratioP1;P1;durP2;ratioP2;P2;SDS_P1;SDS_P2;PMS_P1;PMS_P2;Temp;Humidity;BMP_temperature;BMP_pressure;BME280_temperature;BME280_humidity;BME280_pressure;Samples;Min_cycle;Max_cycle;Signal;HPM_P1;HPM_P2
2022/08/01 09:07:25;;;;;;;;;3.75;3.75;;;;;;;;5104762;27;1466761;-78
2022/08/01 09:09:51;;;;;;;;;4.00;4.00;;;;;;;;5145800;27;20941;-77
2022/08/01 09:12:17;;;;;;;;;3.00;3.00;;;;;;;;5144511;27;11734;-77
2022/08/01 09:14:46;;;;;;;;;3.00;3.00;;;;;;;;5146410;27;8797;-76
2022/08/01 09:17:12;;;;;;;;;4.20;4.20;;;;;;;;5148473;27;8816;-78
2022/08/01 09:19:42;;;;;;;;;3.00;3.00;;;;;;;;5145650;27;11355;-77
2022/08/01 09:22:09;;;;;;;;;2.80;2.80;;;;;;;;5146492;27;11435;-75
2022/08/01 09:24:35;;;;;;;;;3.80;3.80;;;;;;;;5145239;27;11377;-76
2022/08/01 09:27:01;;;;;;;;;3.40;3.40;;;;;;;;5141716;27;8812;-80
2022/08/01 09:29:31;;;;;;;;;3.00;3.00;;;;;;;;5145874;27;8777;-79
2022/08/01 09:31:58;;;;;;;;;2.80;1.80;;;;;;;;5146370;27;8912;-76
2022/08/01 09:34:27;;;;;;;;;3.00;3.00;;;;;;;;5148867;27;12068;-76
2022/08/01 09:36:57;;;;;;;;;3.20;2.60;;;;;;;;5127833;27;11779;-75
2022/08/01 09:39:45;;;;;;;;;3.00;3.00;;;;;;;;5154931;27;10879;-74
2022/08/01 09:42:23;;;;;;;;;2.00;2.00;;;;;;;;5156045;27;11670;-76
2022/08/01 09:44:49;;;;;;;;;2.80;2.80;;;;;;;;5155796;27;8921;-80
2022/08/01 09:47:16;;;;;;;;;3.50;3.50;;;;;;;;5154046;27;10107;-75
2022/08/01 09:49:42;;;;;;;;;4.00;2.00;;;;;;;;5156159;27;11425;-81
2022/08/01 09:52:18;;;;;;;;;2.40;1.80;;;;;;;;5147312;27;12657;-77
2022/08/01 09:54:51;;;;;;;;;2.40;2.40;;;;;;;;5135367;27;11615;-82
2022/08/01 09:57:18;;;;;;;;;3.00;3.00;;;;;;;;5135821;27;9134;-76
2022/08/01 09:59:44;;;;;;;;;2.20;2.20;;;;;;;;5156048;27;13005;-74
2022/08/01 10:02:15;;;;;;;;;2.80;2.80;;;;;;;;5155026;27;11466;-79
2022/08/01 10:04:51;;;;;;;;;2.40;2.40;;;;;;;;5155165;27;8786;-74
2022/08/01 10:07:17;;;;;;;;;3.00;3.00;;;;;;;;5153178;27;9190;-73
2022/08/01 10:09:43;;;;;;;;;3.00;3.00;;;;;;;;5155685;27;11785;-79
2022/08/01 10:12:09;;;;;;;;;1.60;1.60;;;;;;;;5151949;27;10624;-83
2022/08/01 10:14:35;;;;;;;;;3.00;2.00;;;;;;;;5142655;27;11446;-78
2022/08/01 10:17:01;;;;;;;;;2.00;2.00;;;;;;;;5138784;27;11499;-74
2022/08/01 10:19:28;;;;;;;;;2.00;1.00;;;;;;;;5131108;27;8796;-80
2022/08/01 10:21:54;;;;;;;;;1.80;1.80;;;;;;;;5132255;27;8787;-75
2022/08/01 10:24:22;;;;;;;;;2.00;2.00;;;;;;;;5130725;27;11791;-77
2022/08/01 10:26:51;;;;;;;;;2.40;2.40;;;;;;;;5128070;27;11550;-77
2022/08/01 10:29:18;;;;;;;;;2.60;2.60;;;;;;;;5130654;27;8985;-74
2022/08/01 10:31:44;;;;;;;;;2.80;2.80;;;;;;;;5124288;27;8793;-76
2022/08/01 10:34:10;;;;;;;;;3.50;3.00;;;;;;;;5142149;27;8778;-80
2022/08/01 10:36:38;;;;;;;;;2.00;2.00;;;;;;;;5140922;27;11931;-76
2022/08/01 10:39:04;;;;;;;;;1.80;1.80;;;;;;;;5139918;27;10333;-83
2022/08/01 10:41:30;;;;;;;;;2.20;2.20;;;;;;;;5141606;27;11351;-76
2022/08/01 10:43:56;;;;;;;;;3.00;3.00;;;;;;;;5141223;27;12750;-79
2022/08/01 10:46:22;;;;;;;;;4.60;3.80;;;;;;;;5141144;27;11396;-76
2022/08/01 10:49:05;;;;;;;;;4.75;4.00;;;;;;;;5124740;27;11289;-78
2022/08/01 10:51:34;;;;;;;;;4.00;4.00;;;;;;;;5120214;27;10936;-74
2022/08/01 10:54:04;;;;;;;;;2.80;2.80;;;;;;;;5121176;28;8784;-75
2022/08/01 10:56:40;;;;;;;;;4.00;4.00;;;;;;;;5120638;28;11550;-74
2022/08/01 10:59:05;;;;;;;;;4.00;4.00;;;;;;;;5137574;27;12112;-78
2022/08/01 11:01:33;;;;;;;;;4.50;3.25;;;;;;;;5140881;27;8806;-71
2022/08/01 11:04:04;;;;;;;;;4.00;4.00;;;;;;;;5140831;27;10941;-74
2022/08/01 11:06:32;;;;;;;;;4.00;4.00;;;;;;;;5140557;27;10618;-72
2022/08/01 11:08:58;;;;;;;;;4.80;4.80;;;;;;;;5138064;27;8770;-77
2022/08/01 11:11:23;;;;;;;;;3.00;3.00;;;;;;;;5136365;27;8948;-81
2022/08/01 11:13:57;;;;;;;;;4.00;4.00;;;;;;;;5120034;27;11701;-72
2022/08/01 11:16:26;;;;;;;;;3.00;3.00;;;;;;;;5119704;28;9622;-74
2022/08/01 11:18:52;;;;;;;;;4.60;4.40;;;;;;;;5118509;27;9811;-75
2022/08/01 11:21:18;;;;;;;;;5.00;4.00;;;;;;;;5107051;27;14795;-74
2022/08/01 11:23:47;;;;;;;;;5.00;5.00;;;;;;;;5121942;27;11850;-75
2022/08/01 11:26:14;;;;;;;;;4.00;4.00;;;;;;;;5119471;28;8810;-74
2022/08/01 11:28:39;;;;;;;;;4.40;4.40;;;;;;;;5132008;27;9951;-75
2022/08/01 11:31:07;;;;;;;;;4.50;4.00;;;;;;;;5118724;27;9884;-73
2022/08/01 11:33:42;;;;;;;;;3.20;3.20;;;;;;;;5122866;27;9754;-73
2022/08/01 11:36:10;;;;;;;;;2.80;2.80;;;;;;;;5119220;28;11448;-72
2022/08/01 11:38:35;;;;;;;;;5.00;5.00;;;;;;;;5132209;27;11435;-73
2022/08/01 11:41:19;;;;;;;;;5.00;4.00;;;;;;;;5140302;27;11307;-73
2022/08/01 11:44:00;;;;;;;;;3.40;3.40;;;;;;;;5140505;27;8802;-73
2022/08/01 11:46:44;;;;;;;;;4.40;4.00;;;;;;;;5140522;27;12625;-74
2022/08/01 11:49:44;;;;;;;;;3.80;3.80;;;;;;;;5118455;27;13684;-74
2022/08/01 11:52:17;;;;;;;;;5.75;5.00;;;;;;;;5068488;27;11847;-73
2022/08/01 11:54:47;;;;;;;;;5.00;4.00;;;;;;;;5140196;27;11425;-72
2022/08/01 11:57:18;;;;;;;;;5.40;5.40;;;;;;;;5135630;27;9916;-72
2022/08/01 11:59:47;;;;;;;;;4.00;4.00;;;;;;;;5118959;28;10640;-73
2022/08/01 12:02:17;;;;;;;;;5.60;4.80;;;;;;;;5099944;28;12384;-72
2022/08/01 12:04:49;;;;;;;;;4.40;4.40;;;;;;;;5119223;28;11934;-74
2022/08/01 12:07:15;;;;;;;;;6.80;6.00;;;;;;;;5117266;27;11749;-72
2022/08/01 12:09:41;;;;;;;;;4.60;4.60;;;;;;;;5119362;28;11840;-73
2022/08/01 12:12:06;;;;;;;;;4.00;4.00;;;;;;;;5118997;27;13176;-73
2022/08/01 12:14:32;;;;;;;;;4.00;4.00;;;;;;;;5099389;28;8831;-71
2022/08/01 12:16:57;;;;;;;;;6.50;4.50;;;;;;;;5116499;27;8807;-74
2022/08/01 12:19:23;;;;;;;;;4.00;4.00;;;;;;;;5137025;27;11388;-74
2022/08/01 12:22:06;;;;;;;;;4.00;4.00;;;;;;;;5137857;27;11551;-72
2022/08/01 12:24:32;;;;;;;;;4.40;4.40;;;;;;;;5138669;27;8778;-74
2022/08/01 12:26:57;;;;;;;;;4.33;4.33;;;;;;;;5138347;27;8810;-73
2022/08/01 12:29:32;;;;;;;;;5.00;5.00;;;;;;;;5138660;27;8854;-73
2022/08/01 12:31:58;;;;;;;;;5.00;5.00;;;;;;;;5138783;27;11561;-75
2022/08/01 12:34:29;;;;;;;;;6.33;4.00;;;;;;;;5139807;27;8884;-74
2022/08/01 12:36:56;;;;;;;;;4.40;4.40;;;;;;;;5139797;27;10555;-74
2022/08/01 12:39:21;;;;;;;;;5.25;5.00;;;;;;;;5139367;27;11683;-75
2022/08/01 12:41:47;;;;;;;;;4.00;4.00;;;;;;;;5139817;27;11567;-75
2022/08/01 12:44:14;;;;;;;;;3.67;3.00;;;;;;;;5140368;27;10568;-75
2022/08/01 12:46:40;;;;;;;;;3.00;3.00;;;;;;;;5139665;27;10528;-74
2022/08/01 12:49:05;;;;;;;;;4.00;4.00;;;;;;;;5140633;27;8798;-74
2022/08/01 12:51:31;;;;;;;;;3.75;3.75;;;;;;;;5121482;27;11087;-74
2022/08/01 12:53:58;;;;;;;;;4.00;4.00;;;;;;;;5140380;27;11313;-74
2022/08/01 12:56:31;;;;;;;;;4.40;4.40;;;;;;;;5139531;27;12256;-74
2022/08/01 12:58:56;;;;;;;;;3.50;3.50;;;;;;;;5139961;27;9718;-74
2022/08/01 13:01:25;;;;;;;;;4.25;4.25;;;;;;;;5134725;27;11786;-74
2022/08/01 13:04:06;;;;;;;;;4.00;4.00;;;;;;;;5128173;27;11393;-74
2022/08/01 13:06:32;;;;;;;;;4.25;4.25;;;;;;;;5104541;27;10827;-75
2022/08/01 13:09:04;;;;;;;;;4.00;4.00;;;;;;;;5121328;27;10615;-75
2022/08/01 13:11:30;;;;;;;;;4.00;4.00;;;;;;;;5139691;27;8774;-75
2022/08/01 13:13:56;;;;;;;;;4.75;3.00;;;;;;;;5138872;27;8895;-76
2022/08/01 13:16:24;;;;;;;;;3.00;3.00;;;;;;;;5119796;27;10809;-75
2022/08/01 13:18:50;;;;;;;;;3.00;3.00;;;;;;;;5136087;27;9031;-72
2022/08/01 13:21:24;;;;;;;;;4.25;4.25;;;;;;;;5128671;27;8786;-74
2022/08/01 13:24:10;;;;;;;;;3.60;3.00;;;;;;;;5127728;27;11458;-75
2022/08/01 13:26:47;;;;;;;;;3.00;3.00;;;;;;;;5128275;27;11642;-73
2022/08/01 13:29:15;;;;;;;;;3.00;3.00;;;;;;;;5110251;27;9522;-74
2022/08/01 13:31:41;;;;;;;;;5.00;5.00;;;;;;;;5127739;27;8784;-74
2022/08/01 13:34:07;;;;;;;;;4.50;4.50;;;;;;;;5127911;27;8790;-73
2022/08/01 13:36:33;;;;;;;;;4.40;4.40;;;;;;;;5131560;27;11342;-72
2022/08/01 13:41:42;;;;;;;;;3.60;3.60;;;;;;;;5127505;27;11602;-73
2022/08/01 13:44:10;;;;;;;;;4.00;4.00;;;;;;;;5126223;27;11843;-73
2022/08/01 13:46:36;;;;;;;;;4.00;4.00;;;;;;;;5125952;27;11388;-73
2022/08/01 13:49:02;;;;;;;;;4.00;4.00;;;;;;;;5127149;27;8790;-75
2022/08/01 13:51:27;;;;;;;;;3.75;3.75;;;;;;;;5129030;27;8968;-72
2022/08/01 13:53:53;;;;;;;;;3.33;3.33;;;;;;;;5129068;27;11312;-73
2022/08/01 13:56:19;;;;;;;;;4.33;4.33;;;;;;;;5132001;27;8802;-74
2022/08/01 13:58:45;;;;;;;;;2.00;2.00;;;;;;;;5131163;27;8768;-78
2022/08/01 14:01:10;;;;;;;;;3.33;3.33;;;;;;;;5129185;27;11609;-73
2022/08/01 14:03:35;;;;;;;;;3.25;3.25;;;;;;;;5131628;27;11356;-74
2022/08/01 14:06:01;;;;;;;;;4.25;4.00;;;;;;;;5129243;27;8822;-74
2022/08/01 14:08:26;;;;;;;;;4.50;4.50;;;;;;;;5130223;27;13192;-75
2022/08/01 14:10:53;;;;;;;;;2.00;2.00;;;;;;;;5129205;27;8993;-75
2022/08/01 14:13:18;;;;;;;;;5.40;5.40;;;;;;;;5131152;27;11384;-76
2022/08/01 14:15:44;;;;;;;;;4.00;4.00;;;;;;;;5130295;27;11876;-74
2022/08/01 14:18:09;;;;;;;;;4.00;4.00;;;;;;;;5129727;27;11745;-76
2022/08/01 14:20:34;;;;;;;;;4.00;4.00;;;;;;;;5128809;27;8982;-74
2022/08/01 14:23:00;;;;;;;;;3.00;3.00;;;;;;;;5109098;27;8913;-74
2022/08/01 14:25:25;;;;;;;;;3.00;3.00;;;;;;;;5126028;27;9077;-73
2022/08/01 14:27:51;;;;;;;;;4.00;4.00;;;;;;;;5113439;27;8904;-74
2022/08/01 14:30:16;;;;;;;;;3.50;3.50;;;;;;;;5126088;27;8889;-75
2022/08/01 14:32:41;;;;;;;;;4.50;4.50;;;;;;;;5130935;27;11293;-74
2022/08/01 14:35:07;;;;;;;;;3.00;3.00;;;;;;;;5112394;27;9926;-74
2022/08/01 14:37:32;;;;;;;;;2.75;2.75;;;;;;;;5138649;27;11838;-76
2022/08/01 14:39:58;;;;;;;;;4.25;4.00;;;;;;;;5139003;27;11380;-75
2022/08/01 14:42:23;;;;;;;;;5.00;5.00;;;;;;;;5127691;27;11558;-75
2022/08/01 14:44:49;;;;;;;;;3.00;3.00;;;;;;;;5124018;27;10289;-74
2022/08/01 14:47:15;;;;;;;;;3.80;3.80;;;;;;;;5132848;27;8816;-73
2022/08/01 14:49:40;;;;;;;;;4.50;4.50;;;;;;;;5129818;27;8885;-78
2022/08/01 14:52:06;;;;;;;;;4.00;4.00;;;;;;;;5133569;27;11406;-77
2022/08/01 14:54:31;;;;;;;;;4.75;4.00;;;;;;;;5135253;27;8769;-71
2022/08/01 14:56:56;;;;;;;;;3.75;3.75;;;;;;;;5128071;27;8897;-72
2022/08/01 14:59:21;;;;;;;;;4.00;4.00;;;;;;;;5120185;28;12013;-71
2022/08/01 15:01:47;;;;;;;;;5.00;5.00;;;;;;;;5119358;27;11346;-71
2022/08/01 15:04:12;;;;;;;;;4.50;4.50;;;;;;;;5120231;27;8839;-71
2022/08/01 15:06:38;;;;;;;;;6.00;5.00;;;;;;;;5120229;28;11547;-71
2022/08/01 15:09:03;;;;;;;;;5.25;5.00;;;;;;;;5120120;28;11365;-71
2022/08/01 15:11:28;;;;;;;;;4.50;4.50;;;;;;;;5119300;27;8869;-72
2022/08/01 15:16:37;;;;;;;;;4.20;4.20;;;;;;;;5130028;27;8769;-73
2022/08/01 15:19:02;;;;;;;;;3.50;3.50;;;;;;;;5129506;27;8836;-74
2022/08/01 15:21:28;;;;;;;;;5.00;5.00;;;;;;;;5109692;27;11652;-73
2022/08/01 15:23:53;;;;;;;;;5.75;5.75;;;;;;;;5130679;27;11525;-73
2022/08/01 15:26:18;;;;;;;;;4.50;4.50;;;;;;;;5138729;27;8806;-71
2022/08/01 15:28:44;;;;;;;;;6.00;6.00;;;;;;;;5140568;27;11484;-73
2022/08/01 15:31:09;;;;;;;;;8.33;8.33;;;;;;;;5138958;27;12692;-72
2022/08/01 15:33:34;;;;;;;;;9.00;9.00;;;;;;;;5141001;27;13299;-80
2022/08/01 15:36:00;;;;;;;;;8.00;7.00;;;;;;;;5141736;27;11554;-78
2022/08/01 15:38:25;;;;;;;;;9.67;8.33;;;;;;;;5135954;27;8830;-81
2022/08/01 15:40:51;;;;;;;;;8.00;8.00;;;;;;;;5129547;27;11435;-79
2022/08/01 15:43:16;;;;;;;;;8.67;7.33;;;;;;;;5129464;27;11411;-80
2022/08/01 15:45:42;;;;;;;;;7.00;6.00;;;;;;;;5128239;27;10261;-80
2022/08/01 15:48:07;;;;;;;;;8.67;8.67;;;;;;;;5129347;27;11554;-74
2022/08/01 15:50:32;;;;;;;;;11.00;9.67;;;;;;;;5126838;27;11737;-76
2022/08/01 15:52:58;;;;;;;;;9.67;8.00;;;;;;;;5125844;27;21322;-72
2022/08/01 15:55:23;;;;;;;;;5.33;4.67;;;;;;;;5130985;27;22709;-76
2022/08/01 15:57:48;;;;;;;;;7.67;7.67;;;;;;;;5127067;27;11743;-78
2022/08/01 16:00:14;;;;;;;;;5.00;5.00;;;;;;;;5127109;27;10249;-73
2022/08/01 16:02:39;;;;;;;;;6.00;4.00;;;;;;;;5127526;27;11753;-72
2022/08/01 16:05:05;;;;;;;;;6.00;4.33;;;;;;;;5125014;27;8892;-72
2022/08/01 16:07:30;;;;;;;;;6.00;6.00;;;;;;;;5130250;27;8837;-72
2022/08/01 16:09:56;;;;;;;;;4.67;4.67;;;;;;;;5132293;27;9265;-73
2022/08/01 16:12:22;;;;;;;;;4.00;3.00;;;;;;;;5126494;27;14103;-71
2022/08/01 16:14:47;;;;;;;;;7.00;5.00;;;;;;;;5130293;27;10834;-71
2022/08/01 16:17:13;;;;;;;;;2.00;2.00;;;;;;;;5127077;27;8800;-71
2022/08/01 16:19:39;;;;;;;;;5.33;5.33;;;;;;;;5128079;27;9528;-70
2022/08/01 16:22:05;;;;;;;;;9.00;7.00;;;;;;;;5135480;27;11454;-68
2022/08/01 16:24:30;;;;;;;;;6.33;6.33;;;;;;;;5133149;27;11336;-69
2022/08/01 16:26:55;;;;;;;;;5.00;5.00;;;;;;;;5127656;27;11759;-69
2022/08/01 16:29:21;;;;;;;;;6.33;4.67;;;;;;;;5129264;27;11490;-70
2022/08/01 16:31:46;;;;;;;;;10.67;6.00;;;;;;;;5127746;27;12409;-70
2022/08/01 16:34:12;;;;;;;;;5.00;5.00;;;;;;;;5128337;27;21373;-71
2022/08/01 16:36:37;;;;;;;;;7.00;7.00;;;;;;;;5110548;27;23489;-70
2022/08/01 16:39:04;;;;;;;;;6.67;6.67;;;;;;;;5130024;27;8816;-69
2022/08/01 16:41:29;;;;;;;;;7.00;5.50;;;;;;;;5128433;27;11562;-70
2022/08/01 16:43:54;;;;;;;;;17.33;16.33;;;;;;;;5130571;27;11772;-69
2022/08/01 16:46:21;;;;;;;;;23.00;23.00;;;;;;;;5128161;27;23546;-71
2022/08/01 16:48:46;;;;;;;;;32.67;31.67;;;;;;;;5128276;27;13756;-69
2022/08/01 16:51:11;;;;;;;;;28.33;27.33;;;;;;;;5129911;27;13311;-72
2022/08/01 16:53:37;;;;;;;;;18.00;18.00;;;;;;;;5128563;27;13284;-72
2022/08/01 16:56:02;;;;;;;;;20.00;17.67;;;;;;;;5110571;27;15490;-71
2022/08/01 16:58:28;;;;;;;;;18.67;18.67;;;;;;;;5130860;27;13388;-71
2022/08/01 17:00:54;;;;;;;;;11.33;11.33;;;;;;;;5129318;27;12209;-71
2022/08/01 17:03:21;;;;;;;;;16.25;15.25;;;;;;;;5128913;27;11472;-71
2022/08/01 17:05:47;;;;;;;;;20.25;20.25;;;;;;;;5129842;27;8924;-72
2022/08/01 17:08:12;;;;;;;;;17.33;16.00;;;;;;;;5111681;27;12380;-71
2022/08/01 17:10:38;;;;;;;;;11.33;10.33;;;;;;;;5110122;27;13726;-71
2022/08/01 17:13:03;;;;;;;;;9.00;8.67;;;;;;;;5103407;28;12562;-74
2022/08/01 17:15:28;;;;;;;;;16.00;14.00;;;;;;;;5124490;27;22561;-75
2022/08/01 17:17:54;;;;;;;;;12.00;12.00;;;;;;;;5129072;27;22411;-72
2022/08/01 17:20:20;;;;;;;;;8.67;8.00;;;;;;;;5135002;27;9375;-72
2022/08/01 17:22:45;;;;;;;;;8.67;8.33;;;;;;;;5139468;27;23392;-72
2022/08/01 17:25:11;;;;;;;;;11.00;11.00;;;;;;;;5139464;27;8805;-73
2022/08/01 17:27:36;;;;;;;;;10.33;9.33;;;;;;;;5137622;27;23332;-71
2022/08/01 17:30:01;;;;;;;;;13.67;12.00;;;;;;;;5142104;27;21352;-72
2022/08/01 17:32:27;;;;;;;;;12.67;11.67;;;;;;;;5141995;27;22010;-72
2022/08/01 17:34:52;;;;;;;;;7.00;7.00;;;;;;;;5143039;27;11568;-71
2022/08/01 17:37:17;;;;;;;;;3.33;2.67;;;;;;;;5142127;27;22203;-71
2022/08/01 17:39:42;;;;;;;;;7.00;6.00;;;;;;;;5141913;27;11453;-72
2022/08/01 17:42:09;;;;;;;;;8.00;8.00;;;;;;;;5143133;27;11398;-72
2022/08/01 17:44:34;;;;;;;;;2.50;2.50;;;;;;;;5142963;27;8770;-75
2022/08/01 17:47:00;;;;;;;;;9.33;9.33;;;;;;;;5142327;27;11292;-79
2022/08/01 17:49:25;;;;;;;;;6.00;5.00;;;;;;;;5121613;27;11333;-75
2022/08/01 17:51:50;;;;;;;;;5.67;5.67;;;;;;;;5141717;27;11287;-73
2022/08/01 17:54:16;;;;;;;;;4.00;4.00;;;;;;;;5142161;27;12586;-77
2022/08/01 17:56:41;;;;;;;;;4.00;4.00;;;;;;;;5135312;27;11294;-77
2022/08/01 17:59:07;;;;;;;;;4.67;4.00;;;;;;;;5130103;27;8898;-82
2022/08/01 18:01:34;;;;;;;;;4.00;4.00;;;;;;;;5112755;27;9624;-77
2022/08/01 18:03:59;;;;;;;;;5.50;5.50;;;;;;;;5130614;27;8926;-76
2022/08/01 18:06:25;;;;;;;;;5.00;4.00;;;;;;;;5128443;27;12422;-70
2022/08/01 18:08:54;;;;;;;;;4.67;4.00;;;;;;;;5130504;27;10374;-70
2022/08/01 18:11:20;;;;;;;;;12.25;9.75;;;;;;;;5129123;27;8931;-71
2022/08/01 18:13:45;;;;;;;;;14.33;12.00;;;;;;;;5130290;27;22173;-70
2022/08/01 18:16:11;;;;;;;;;9.67;8.00;;;;;;;;5129087;27;22770;-71
2022/08/01 18:18:37;;;;;;;;;5.25;5.25;;;;;;;;5109610;27;24287;-69
2022/08/01 18:21:03;;;;;;;;;11.75;10.25;;;;;;;;5131069;27;12024;-71
2022/08/01 18:23:29;;;;;;;;;11.00;10.00;;;;;;;;5131557;27;22315;-72
2022/08/01 18:25:54;;;;;;;;;9.00;9.00;;;;;;;;5129395;27;9437;-72
2022/08/01 18:28:19;;;;;;;;;7.33;5.67;;;;;;;;5127856;27;22297;-74
2022/08/01 18:30:45;;;;;;;;;13.00;11.00;;;;;;;;5130334;27;11300;-71
2022/08/01 18:33:10;;;;;;;;;8.33;7.33;;;;;;;;5129826;27;22504;-72
2022/08/01 18:35:35;;;;;;;;;7.67;5.00;;;;;;;;5127925;27;22397;-72
2022/08/01 18:38:00;;;;;;;;;4.00;3.00;;;;;;;;5130563;27;11469;-71
2022/08/01 18:40:26;;;;;;;;;6.00;6.00;;;;;;;;5129487;27;10431;-81
2022/08/01 18:42:53;;;;;;;;;4.00;4.00;;;;;;;;5130586;27;8828;-75
2022/08/01 18:45:18;;;;;;;;;6.50;4.25;;;;;;;;5131101;27;8967;-78
2022/08/01 18:47:47;;;;;;;;;4.33;4.00;;;;;;;;5127663;27;11612;-75
2022/08/01 18:50:12;;;;;;;;;4.00;4.00;;;;;;;;5131873;27;11421;-75
2022/08/01 18:52:37;;;;;;;;;4.00;4.00;;;;;;;;5128891;27;8830;-75
2022/08/01 18:55:03;;;;;;;;;2.00;2.00;;;;;;;;5130593;27;8889;-76
2022/08/01 18:57:28;;;;;;;;;3.00;3.00;;;;;;;;5124982;27;8808;-76
2022/08/01 18:59:54;;;;;;;;;4.00;4.00;;;;;;;;5131582;27;8824;-79
2022/08/01 19:02:19;;;;;;;;;5.00;3.00;;;;;;;;5129289;27;8931;-75
2022/08/01 19:04:45;;;;;;;;;4.00;4.00;;;;;;;;5131689;27;8818;-77
2022/08/01 19:07:10;;;;;;;;;3.33;3.33;;;;;;;;5110413;27;9383;-77
2022/08/01 19:09:35;;;;;;;;;3.00;3.00;;;;;;;;5130691;27;12537;-75
2022/08/01 19:12:02;;;;;;;;;2.00;2.00;;;;;;;;5129348;27;9746;-79
2022/08/01 19:14:28;;;;;;;;;3.00;3.00;;;;;;;;5110245;27;8803;-80
2022/08/01 19:16:55;;;;;;;;;3.00;3.00;;;;;;;;5130305;27;8806;-76
2022/08/01 19:19:20;;;;;;;;;3.00;3.00;;;;;;;;5130320;27;8782;-79
2022/08/01 19:21:46;;;;;;;;;3.33;3.00;;;;;;;;5130605;27;9561;-81
2022/08/01 19:24:18;;;;;;;;;6.00;4.67;;;;;;;;5128502;27;8799;-81
2022/08/01 19:27:08;;;;;;;;;3.25;3.00;;;;;;;;5128451;27;12031;-78
2022/08/01 19:29:35;;;;;;;;;4.75;3.50;;;;;;;;5126562;27;11904;-78
2022/08/01 19:32:01;;;;;;;;;3.00;3.00;;;;;;;;5128938;27;11825;-79
2022/08/01 19:34:27;;;;;;;;;4.00;4.00;;;;;;;;5130533;27;11328;-83
2022/08/01 19:36:54;;;;;;;;;5.00;5.00;;;;;;;;5128971;27;9518;-84
2022/08/01 19:39:22;;;;;;;;;4.00;4.00;;;;;;;;5112422;27;11352;-76
2022/08/01 19:41:49;;;;;;;;;4.00;4.00;;;;;;;;5129190;27;9770;-75
2022/08/01 19:44:16;;;;;;;;;4.75;4.50;;;;;;;;5131233;27;9026;-76
2022/08/01 19:46:42;;;;;;;;;6.00;4.00;;;;;;;;5129433;27;9654;-76
2022/08/01 19:49:10;;;;;;;;;4.00;4.00;;;;;;;;5129903;27;11296;-75
2022/08/01 19:51:39;;;;;;;;;3.25;3.25;;;;;;;;5105251;27;9425;-76
2022/08/01 19:54:05;;;;;;;;;5.25;4.25;;;;;;;;5127904;27;11786;-74
2022/08/01 19:56:36;;;;;;;;;2.75;2.75;;;;;;;;5128153;27;8948;-77
2022/08/01 19:59:03;;;;;;;;;4.00;3.00;;;;;;;;5112858;27;10797;-77
2022/08/01 20:01:29;;;;;;;;;5.00;3.00;;;;;;;;5129504;27;11890;-73
2022/08/01 20:03:54;;;;;;;;;3.00;3.00;;;;;;;;5128605;27;8806;-75
2022/08/01 20:06:20;;;;;;;;;4.33;4.33;;;;;;;;5124420;27;8911;-77
2022/08/01 20:08:45;;;;;;;;;2.67;2.67;;;;;;;;5130081;27;11790;-78
2022/08/01 20:11:10;;;;;;;;;3.00;3.00;;;;;;;;5109083;27;13480;-76
2022/08/01 20:13:37;;;;;;;;;3.00;3.00;;;;;;;;5127754;27;11372;-75
2022/08/01 20:16:03;;;;;;;;;3.50;3.50;;;;;;;;5126947;27;8789;-72
2022/08/01 20:18:28;;;;;;;;;6.00;5.00;;;;;;;;5131328;27;8820;-76
2022/08/01 20:20:54;;;;;;;;;2.00;2.00;;;;;;;;5127687;27;11336;-74
2022/08/01 20:23:21;;;;;;;;;3.33;3.33;;;;;;;;5130469;27;8798;-73
2022/08/01 20:25:48;;;;;;;;;4.50;3.75;;;;;;;;5127804;27;11777;-73
2022/08/01 20:28:13;;;;;;;;;3.25;3.25;;;;;;;;5128993;27;10470;-74
2022/08/01 20:30:39;;;;;;;;;3.00;3.00;;;;;;;;5126217;27;10390;-73
2022/08/01 20:33:06;;;;;;;;;3.25;3.25;;;;;;;;5127651;27;8774;-74
2022/08/01 20:35:31;;;;;;;;;3.00;3.00;;;;;;;;5128066;27;8824;-73
2022/08/01 20:37:57;;;;;;;;;4.00;4.00;;;;;;;;5126939;27;8986;-75
2022/08/01 20:40:23;;;;;;;;;4.00;4.00;;;;;;;;5110743;27;9431;-76
2022/08/01 20:42:49;;;;;;;;;5.00;5.00;;;;;;;;5110243;27;9000;-77
2022/08/01 20:45:14;;;;;;;;;4.25;4.25;;;;;;;;5107898;27;9804;-76
2022/08/01 20:47:41;;;;;;;;;4.00;4.00;;;;;;;;5128569;27;11450;-75
2022/08/01 20:52:51;;;;;;;;;2.25;2.25;;;;;;;;5126876;27;8757;-74
2022/08/01 20:55:16;;;;;;;;;4.00;4.00;;;;;;;;5126993;27;11269;-76
2022/08/01 20:57:43;;;;;;;;;5.33;5.00;;;;;;;;5128397;27;11850;-76
2022/08/01 21:00:09;;;;;;;;;4.00;4.00;;;;;;;;5128809;27;11203;-75
2022/08/01 21:02:46;;;;;;;;;5.00;5.00;;;;;;;;5125437;27;10534;-77
2022/08/01 21:05:15;;;;;;;;;4.75;4.75;;;;;;;;5127719;27;10155;-74
2022/08/01 21:07:43;;;;;;;;;5.00;5.00;;;;;;;;5127252;27;11423;-74
2022/08/01 21:10:10;;;;;;;;;5.25;4.25;;;;;;;;5110973;27;13715;-73
2022/08/01 21:12:48;;;;;;;;;3.75;3.75;;;;;;;;5127472;27;11820;-74
2022/08/01 21:15:23;;;;;;;;;4.00;4.00;;;;;;;;5128845;27;11476;-75
2022/08/01 21:17:59;;;;;;;;;4.00;4.00;;;;;;;;5128471;27;11637;-77
2022/08/01 21:20:26;;;;;;;;;5.00;4.00;;;;;;;;5127535;27;8776;-71
2022/08/01 21:22:55;;;;;;;;;4.75;4.75;;;;;;;;5128316;27;8774;-70
2022/08/01 21:25:25;;;;;;;;;4.00;4.00;;;;;;;;5128715;27;11428;-71
2022/08/01 21:27:51;;;;;;;;;4.25;4.25;;;;;;;;5108812;27;8966;-71
2022/08/01 21:30:16;;;;;;;;;5.25;4.00;;;;;;;;5126563;27;9608;-71
2022/08/01 21:32:42;;;;;;;;;4.67;4.67;;;;;;;;5128809;27;11558;-71
2022/08/01 21:35:07;;;;;;;;;4.33;4.33;;;;;;;;5127597;27;11576;-70
2022/08/01 21:37:35;;;;;;;;;6.00;5.00;;;;;;;;5127328;27;8824;-71
2022/08/01 21:40:01;;;;;;;;;3.25;3.25;;;;;;;;5125976;27;11535;-71
2022/08/01 21:42:26;;;;;;;;;4.00;4.00;;;;;;;;5128700;27;11432;-71
2022/08/01 21:44:53;;;;;;;;;5.33;4.00;;;;;;;;5128073;27;11561;-71
2022/08/01 21:47:18;;;;;;;;;5.00;5.00;;;;;;;;5126586;27;9034;-71
2022/08/01 21:49:44;;;;;;;;;4.67;3.00;;;;;;;;5128726;27;9461;-72
2022/08/01 21:52:17;;;;;;;;;4.00;4.00;;;;;;;;5127374;27;10502;-71
2022/08/01 21:55:01;;;;;;;;;5.00;5.00;;;;;;;;5126421;27;9959;-71
2022/08/01 21:57:45;;;;;;;;;3.25;3.25;;;;;;;;5127383;27;9857;-71
2022/08/01 22:00:13;;;;;;;;;3.00;3.00;;;;;;;;5126966;27;11380;-71
2022/08/01 22:02:43;;;;;;;;;3.00;3.00;;;;;;;;5126055;27;8773;-71
2022/08/01 22:05:10;;;;;;;;;3.00;3.00;;;;;;;;5108910;27;8909;-71
2022/08/01 22:07:43;;;;;;;;;6.00;4.25;;;;;;;;5127879;27;8800;-71
2022/08/01 22:10:11;;;;;;;;;3.00;3.00;;;;;;;;5127033;27;12632;-71
2022/08/01 22:12:37;;;;;;;;;4.00;4.00;;;;;;;;5107976;27;12225;-71
2022/08/01 22:15:03;;;;;;;;;3.00;3.00;;;;;;;;5132002;27;8846;-71
2022/08/01 22:17:30;;;;;;;;;4.00;4.00;;;;;;;;5130326;27;9215;-71
2022/08/01 22:19:55;;;;;;;;;3.00;3.00;;;;;;;;5130068;27;9035;-71
2022/08/01 22:22:21;;;;;;;;;4.33;3.33;;;;;;;;5132449;27;8979;-72
2022/08/01 22:24:48;;;;;;;;;4.00;4.00;;;;;;;;5130182;27;11567;-71
2022/08/01 22:27:34;;;;;;;;;4.50;4.50;;;;;;;;5130079;27;10414;-71
2022/08/01 22:30:03;;;;;;;;;3.25;3.25;;;;;;;;5130970;27;9832;-71
2022/08/01 22:32:37;;;;;;;;;4.75;4.75;;;;;;;;5129407;27;11737;-71
2022/08/01 22:35:04;;;;;;;;;5.75;5.75;;;;;;;;5129393;27;10367;-70
2022/08/01 22:37:29;;;;;;;;;5.50;4.00;;;;;;;;5130000;27;9409;-72
2022/08/01 22:39:59;;;;;;;;;4.67;4.33;;;;;;;;5131096;27;10532;-71
2022/08/01 22:42:30;;;;;;;;;7.50;4.00;;;;;;;;5129798;27;11371;-71
2022/08/01 22:44:56;;;;;;;;;6.25;5.00;;;;;;;;5130508;27;11643;-71
2022/08/01 22:47:30;;;;;;;;;6.00;6.00;;;;;;;;5131727;27;10752;-72
2022/08/01 22:50:03;;;;;;;;;7.00;6.50;;;;;;;;5112927;27;10327;-71
2022/08/01 22:52:29;;;;;;;;;13.00;10.50;;;;;;;;5129518;27;11389;-71
2022/08/01 22:55:05;;;;;;;;;7.33;6.67;;;;;;;;5110215;27;25294;-71
2022/08/01 22:57:40;;;;;;;;;8.00;6.00;;;;;;;;5130061;27;22461;-71
2022/08/01 23:00:08;;;;;;;;;5.75;5.75;;;;;;;;5129947;27;12554;-72
2022/08/01 23:02:36;;;;;;;;;6.25;6.25;;;;;;;;5129741;27;11452;-71
2022/08/01 23:05:03;;;;;;;;;9.00;8.00;;;;;;;;5131082;27;10417;-71
2022/08/01 23:07:31;;;;;;;;;6.00;6.00;;;;;;;;5129338;27;12195;-71
2022/08/01 23:09:57;;;;;;;;;6.50;5.25;;;;;;;;5129423;27;9949;-71
2022/08/01 23:12:24;;;;;;;;;5.00;5.00;;;;;;;;5131173;27;10403;-71
2022/08/01 23:14:51;;;;;;;;;6.25;5.75;;;;;;;;5129615;27;11625;-71
2022/08/01 23:17:18;;;;;;;;;8.00;7.00;;;;;;;;5129481;27;11387;-70
2022/08/01 23:19:43;;;;;;;;;3.50;3.50;;;;;;;;5130514;27;11565;-70
2022/08/01 23:22:09;;;;;;;;;5.00;5.00;;;;;;;;5129164;27;11316;-70
2022/08/01 23:24:34;;;;;;;;;5.00;4.00;;;;;;;;5130287;27;11288;-71
2022/08/01 23:29:46;;;;;;;;;6.25;6.00;;;;;;;;5130059;27;10460;-71
2022/08/01 23:32:11;;;;;;;;;6.25;6.25;;;;;;;;5130486;27;12477;-73
2022/08/01 23:34:37;;;;;;;;;5.67;5.67;;;;;;;;5130713;27;8816;-72
2022/08/01 23:37:02;;;;;;;;;5.33;5.33;;;;;;;;5128462;27;11270;-71
2022/08/01 23:39:27;;;;;;;;;8.67;6.00;;;;;;;;5106135;28;10702;-71
2022/08/01 23:41:53;;;;;;;;;6.67;6.00;;;;;;;;5120512;28;11267;-71
2022/08/01 23:44:18;;;;;;;;;6.33;5.33;;;;;;;;5120527;28;8776;-71
2022/08/01 23:46:43;;;;;;;;;6.00;6.00;;;;;;;;5119739;28;10752;-72
2022/08/01 23:49:08;;;;;;;;;5.00;5.00;;;;;;;;5120833;28;10303;-72
2022/08/01 23:51:34;;;;;;;;;5.33;5.33;;;;;;;;5102443;28;10553;-72
2022/08/01 23:53:59;;;;;;;;;5.00;5.00;;;;;;;;5121180;28;8756;-72
2022/08/01 23:56:24;;;;;;;;;4.00;4.00;;;;;;;;5120438;28;8792;-71
2022/08/01 23:58:49;;;;;;;;;5.33;5.33;;;;;;;;5120454;28;8848;-71
